sensor_id;sensor_type;location;lat;lon;timestamp;P1;durP1;ratioP1;P2;durP2;ratioP2
59530;SDS011;45349;48.692;8.186;2023-09-19T00:00:05;2.90;;;0.90;;
59530;SDS011;45349;48.692;8.186;2023-09-19T00:02:38;3.90;;;1.13;;
59530;SDS011;45349;48.692;8.186;2023-09-19T00:05:04;2.20;;;0.83;;
59530;SDS011;45349;48.692;8.186;2023-09-19T00:07:32;1.60;;;0.80;;
59530;SDS011;45349;48.692;8.186;2023-09-19T00:10:01;1.90;;;0.70;;
59530;SDS011;45349;48.692;8.186;2023-09-19T00:12:29;2.03;;;0.80;;
59530;SDS011;45349;48.692;8.186;2023-09-19T00:14:56;2.70;;;0.70;;
59530;SDS011;45349;48.692;8.186;2023-09-19T00:17:25;3.80;;;0.70;;
59530;SDS011;45349;48.692;8.186;2023-09-19T00:19:52;1.43;;;0.83;;
59530;SDS011;45349;48.692;8.186;2023-09-19T00:22:18;1.77;;;0.87;;
59530;SDS011;45349;48.692;8.186;2023-09-19T00:24:45;2.13;;;0.80;;
59530;SDS011;45349;48.692;8.186;2023-09-19T00:27:12;1.67;;;0.80;;
59530;SDS011;45349;48.692;8.186;2023-09-19T00:29:38;2.20;;;0.63;;
59530;SDS011;45349;48.692;8.186;2023-09-19T00:32:06;1.60;;;0.80;;
59530;SDS011;45349;48.692;8.186;2023-09-19T00:34:35;4.30;;;0.60;;
59530;SDS011;45349;48.692;8.186;2023-09-19T00:37:01;3.03;;;0.67;;
59530;SDS011;45349;48.692;8.186;2023-09-19T00:39:28;2.10;;;0.60;;
59530;SDS011;45349;48.692;8.186;2023-09-19T00:41:56;1.90;;;0.57;;
59530;SDS011;45349;48.692;8.186;2023-09-19T00:44:23;1.13;;;0.57;;
59530;SDS011;45349;48.692;8.186;2023-09-19T00:46:49;1.83;;;0.70;;
59530;SDS011;45349;48.692;8.186;2023-09-19T00:49:16;2.53;;;0.60;;
59530;SDS011;45349;48.692;8.186;2023-09-19T00:51:47;2.30;;;0.60;;
59530;SDS011;45349;48.692;8.186;2023-09-19T00:54:13;1.13;;;0.70;;
59530;SDS011;45349;48.692;8.186;2023-09-19T00:56:43;2.10;;;0.60;;
59530;SDS011;45349;48.692;8.186;2023-09-19T00:59:11;1.03;;;0.67;;
59530;SDS011;45349;48.692;8.186;2023-09-19T01:01:38;1.00;;;0.50;;
59530;SDS011;45349;48.692;8.186;2023-09-19T01:04:05;2.10;;;0.60;;
59530;SDS011;45349;48.692;8.186;2023-09-19T01:06:32;1.10;;;0.80;;
59530;SDS011;45349;48.692;8.186;2023-09-19T01:09:00;3.57;;;0.60;;
59530;SDS011;45349;48.692;8.186;2023-09-19T01:11:31;2.80;;;1.10;;
59530;SDS011;45349;48.692;8.186;2023-09-19T01:14:08;2.47;;;0.63;;
59530;SDS011;45349;48.692;8.186;2023-09-19T01:16:45;0.97;;;0.50;;
59530;SDS011;45349;48.692;8.186;2023-09-19T01:19:24;2.80;;;0.60;;
59530;SDS011;45349;48.692;8.186;2023-09-19T01:22:13;2.20;;;0.70;;
59530;SDS011;45349;48.692;8.186;2023-09-19T01:28:01;2.03;;;0.63;;
59530;SDS011;45349;48.692;8.186;2023-09-19T01:30:42;3.37;;;0.80;;
59530;SDS011;45349;48.692;8.186;2023-09-19T01:33:10;4.50;;;0.77;;
59530;SDS011;45349;48.692;8.186;2023-09-19T01:35:37;3.23;;;0.60;;
59530;SDS011;45349;48.692;8.186;2023-09-19T01:38:04;2.27;;;0.70;;
59530;SDS011;45349;48.692;8.186;2023-09-19T01:40:32;2.00;;;0.60;;
59530;SDS011;45349;48.692;8.186;2023-09-19T01:43:08;0.60;;;0.60;;
59530;SDS011;45349;48.692;8.186;2023-09-19T01:45:43;2.97;;;0.80;;
59530;SDS011;45349;48.692;8.186;2023-09-19T01:48:19;1.73;;;0.77;;
59530;SDS011;45349;48.692;8.186;2023-09-19T01:50:59;2.70;;;0.83;;
59530;SDS011;45349;48.692;8.186;2023-09-19T01:53:28;2.60;;;0.70;;
59530;SDS011;45349;48.692;8.186;2023-09-19T01:55:59;3.70;;;0.90;;
59530;SDS011;45349;48.692;8.186;2023-09-19T01:58:29;3.23;;;0.80;;
59530;SDS011;45349;48.692;8.186;2023-09-19T02:01:02;3.97;;;0.93;;
59530;SDS011;45349;48.692;8.186;2023-09-19T02:03:31;2.07;;;0.80;;
59530;SDS011;45349;48.692;8.186;2023-09-19T02:05:59;4.17;;;0.70;;
59530;SDS011;45349;48.692;8.186;2023-09-19T02:08:28;1.70;;;0.77;;
59530;SDS011;45349;48.692;8.186;2023-09-19T02:10:58;1.73;;;0.70;;
59530;SDS011;45349;48.692;8.186;2023-09-19T02:13:25;3.47;;;0.87;;
59530;SDS011;45349;48.692;8.186;2023-09-19T02:15:59;1.47;;;0.70;;
59530;SDS011;45349;48.692;8.186;2023-09-19T02:18:29;2.10;;;0.80;;
59530;SDS011;45349;48.692;8.186;2023-09-19T02:20:58;6.37;;;1.40;;
59530;SDS011;45349;48.692;8.186;2023-09-19T02:23:25;2.73;;;0.80;;
59530;SDS011;45349;48.692;8.186;2023-09-19T02:26:17;4.93;;;1.07;;
59530;SDS011;45349;48.692;8.186;2023-09-19T02:28:44;4.97;;;1.37;;
59530;SDS011;45349;48.692;8.186;2023-09-19T02:31:12;3.03;;;1.10;;
59530;SDS011;45349;48.692;8.186;2023-09-19T02:33:39;2.13;;;0.90;;
59530;SDS011;45349;48.692;8.186;2023-09-19T02:36:05;2.83;;;1.00;;
59530;SDS011;45349;48.692;8.186;2023-09-19T02:38:32;7.80;;;1.00;;
59530;SDS011;45349;48.692;8.186;2023-09-19T02:40:59;4.93;;;1.27;;
59530;SDS011;45349;48.692;8.186;2023-09-19T02:46:20;2.07;;;1.03;;
59530;SDS011;45349;48.692;8.186;2023-09-19T02:48:47;1.63;;;0.90;;
59530;SDS011;45349;48.692;8.186;2023-09-19T02:51:13;3.17;;;1.27;;
59530;SDS011;45349;48.692;8.186;2023-09-19T02:53:40;3.57;;;0.77;;
59530;SDS011;45349;48.692;8.186;2023-09-19T02:56:08;2.23;;;0.63;;
59530;SDS011;45349;48.692;8.186;2023-09-19T02:58:37;2.73;;;1.10;;
59530;SDS011;45349;48.692;8.186;2023-09-19T03:01:08;7.20;;;2.80;;
59530;SDS011;45349;48.692;8.186;2023-09-19T03:03:38;2.53;;;0.80;;
59530;SDS011;45349;48.692;8.186;2023-09-19T03:06:06;2.73;;;0.97;;
59530;SDS011;45349;48.692;8.186;2023-09-19T03:08:34;1.60;;;0.80;;
59530;SDS011;45349;48.692;8.186;2023-09-19T03:11:03;3.07;;;0.80;;
59530;SDS011;45349;48.692;8.186;2023-09-19T03:13:31;1.93;;;0.97;;
59530;SDS011;45349;48.692;8.186;2023-09-19T03:15:59;1.77;;;0.90;;
59530;SDS011;45349;48.692;8.186;2023-09-19T03:18:27;1.87;;;1.10;;
59530;SDS011;45349;48.692;8.186;2023-09-19T03:21:00;3.63;;;0.90;;
59530;SDS011;45349;48.692;8.186;2023-09-19T03:23:28;5.17;;;1.13;;
59530;SDS011;45349;48.692;8.186;2023-09-19T03:25:58;4.60;;;1.00;;
59530;SDS011;45349;48.692;8.186;2023-09-19T03:28:25;2.83;;;1.20;;
59530;SDS011;45349;48.692;8.186;2023-09-19T03:30:59;1.97;;;1.00;;
59530;SDS011;45349;48.692;8.186;2023-09-19T03:33:27;2.17;;;0.93;;
59530;SDS011;45349;48.692;8.186;2023-09-19T03:36:01;2.33;;;1.20;;
59530;SDS011;45349;48.692;8.186;2023-09-19T03:38:30;3.20;;;0.97;;
59530;SDS011;45349;48.692;8.186;2023-09-19T03:40:58;4.07;;;1.20;;
59530;SDS011;45349;48.692;8.186;2023-09-19T03:43:25;2.33;;;1.20;;
59530;SDS011;45349;48.692;8.186;2023-09-19T03:46:00;2.23;;;1.23;;
59530;SDS011;45349;48.692;8.186;2023-09-19T03:48:30;2.37;;;1.70;;
59530;SDS011;45349;48.692;8.186;2023-09-19T03:51:00;4.30;;;1.30;;
59530;SDS011;45349;48.692;8.186;2023-09-19T03:53:27;3.53;;;1.03;;
59530;SDS011;45349;48.692;8.186;2023-09-19T03:55:58;3.97;;;1.20;;
59530;SDS011;45349;48.692;8.186;2023-09-19T03:58:27;1.93;;;1.00;;
59530;SDS011;45349;48.692;8.186;2023-09-19T04:00:59;2.07;;;1.10;;
59530;SDS011;45349;48.692;8.186;2023-09-19T04:03:27;3.17;;;1.00;;
59530;SDS011;45349;48.692;8.186;2023-09-19T04:06:01;4.83;;;1.10;;
59530;SDS011;45349;48.692;8.186;2023-09-19T04:08:28;2.30;;;1.10;;
59530;SDS011;45349;48.692;8.186;2023-09-19T04:10:58;2.43;;;1.23;;
59530;SDS011;45349;48.692;8.186;2023-09-19T04:13:25;2.30;;;1.10;;
59530;SDS011;45349;48.692;8.186;2023-09-19T04:15:58;2.67;;;1.20;;
59530;SDS011;45349;48.692;8.186;2023-09-19T04:18:25;3.13;;;1.30;;
59530;SDS011;45349;48.692;8.186;2023-09-19T04:21:18;2.37;;;1.20;;
59530;SDS011;45349;48.692;8.186;2023-09-19T04:23:45;1.80;;;1.10;;
59530;SDS011;45349;48.692;8.186;2023-09-19T04:26:11;3.13;;;1.23;;
59530;SDS011;45349;48.692;8.186;2023-09-19T04:28:38;3.10;;;1.30;;
59530;SDS011;45349;48.692;8.186;2023-09-19T04:31:05;1.57;;;1.10;;
59530;SDS011;45349;48.692;8.186;2023-09-19T04:33:33;4.90;;;1.57;;
59530;SDS011;45349;48.692;8.186;2023-09-19T04:36:00;13.80;;;2.67;;
59530;SDS011;45349;48.692;8.186;2023-09-19T04:38:30;8.77;;;2.03;;
59530;SDS011;45349;48.692;8.186;2023-09-19T04:40:58;6.03;;;1.70;;
59530;SDS011;45349;48.692;8.186;2023-09-19T04:43:29;8.43;;;2.10;;
59530;SDS011;45349;48.692;8.186;2023-09-19T04:45:58;7.33;;;1.90;;
59530;SDS011;45349;48.692;8.186;2023-09-19T04:48:25;3.97;;;1.97;;
59530;SDS011;45349;48.692;8.186;2023-09-19T04:50:58;6.10;;;2.17;;
59530;SDS011;45349;48.692;8.186;2023-09-19T04:53:25;5.43;;;1.93;;
59530;SDS011;45349;48.692;8.186;2023-09-19T04:56:00;6.93;;;2.17;;
59530;SDS011;45349;48.692;8.186;2023-09-19T04:58:28;4.00;;;1.70;;
59530;SDS011;45349;48.692;8.186;2023-09-19T05:00:58;4.10;;;2.00;;
59530;SDS011;45349;48.692;8.186;2023-09-19T05:03:28;5.57;;;1.60;;
59530;SDS011;45349;48.692;8.186;2023-09-19T05:05:58;6.30;;;2.13;;
59530;SDS011;45349;48.692;8.186;2023-09-19T05:08:25;7.43;;;2.23;;
59530;SDS011;45349;48.692;8.186;2023-09-19T05:11:02;4.53;;;1.67;;
59530;SDS011;45349;48.692;8.186;2023-09-19T05:13:29;4.57;;;2.07;;
59530;SDS011;45349;48.692;8.186;2023-09-19T05:15:59;4.83;;;2.43;;
59530;SDS011;45349;48.692;8.186;2023-09-19T05:18:26;5.33;;;2.00;;
59530;SDS011;45349;48.692;8.186;2023-09-19T05:21:01;6.43;;;2.20;;
59530;SDS011;45349;48.692;8.186;2023-09-19T05:23:28;6.53;;;2.63;;
59530;SDS011;45349;48.692;8.186;2023-09-19T05:25:59;7.57;;;2.20;;
59530;SDS011;45349;48.692;8.186;2023-09-19T05:28:27;5.20;;;2.40;;
59530;SDS011;45349;48.692;8.186;2023-09-19T05:31:00;7.40;;;1.93;;
59530;SDS011;45349;48.692;8.186;2023-09-19T05:33:26;4.30;;;1.97;;
59530;SDS011;45349;48.692;8.186;2023-09-19T05:35:58;4.23;;;1.93;;
59530;SDS011;45349;48.692;8.186;2023-09-19T05:38:25;4.60;;;1.80;;
59530;SDS011;45349;48.692;8.186;2023-09-19T05:40:58;2.80;;;2.00;;
59530;SDS011;45349;48.692;8.186;2023-09-19T05:43:28;7.17;;;2.30;;
59530;SDS011;45349;48.692;8.186;2023-09-19T05:45:59;4.07;;;2.03;;
59530;SDS011;45349;48.692;8.186;2023-09-19T05:48:26;7.53;;;2.20;;
59530;SDS011;45349;48.692;8.186;2023-09-19T05:50:58;8.10;;;2.30;;
59530;SDS011;45349;48.692;8.186;2023-09-19T05:53:26;3.77;;;1.70;;
59530;SDS011;45349;48.692;8.186;2023-09-19T05:55:58;2.77;;;1.67;;
59530;SDS011;45349;48.692;8.186;2023-09-19T05:58:26;7.70;;;1.70;;
59530;SDS011;45349;48.692;8.186;2023-09-19T06:01:00;2.30;;;1.43;;
59530;SDS011;45349;48.692;8.186;2023-09-19T06:03:27;2.80;;;1.60;;
59530;SDS011;45349;48.692;8.186;2023-09-19T06:05:58;7.20;;;1.53;;
59530;SDS011;45349;48.692;8.186;2023-09-19T06:08:25;2.83;;;1.53;;
59530;SDS011;45349;48.692;8.186;2023-09-19T06:10:58;3.37;;;1.20;;
59530;SDS011;45349;48.692;8.186;2023-09-19T06:13:27;4.93;;;1.50;;
59530;SDS011;45349;48.692;8.186;2023-09-19T06:16:00;1.90;;;1.30;;
59530;SDS011;45349;48.692;8.186;2023-09-19T06:18:29;5.27;;;1.63;;
59530;SDS011;45349;48.692;8.186;2023-09-19T06:20:58;4.27;;;1.60;;
59530;SDS011;45349;48.692;8.186;2023-09-19T06:23:25;8.90;;;1.40;;
59530;SDS011;45349;48.692;8.186;2023-09-19T06:25:58;3.87;;;1.20;;
59530;SDS011;45349;48.692;8.186;2023-09-19T06:28:25;8.53;;;1.30;;
59530;SDS011;45349;48.692;8.186;2023-09-19T06:31:01;1.50;;;1.20;;
59530;SDS011;45349;48.692;8.186;2023-09-19T06:33:28;4.90;;;1.30;;
59530;SDS011;45349;48.692;8.186;2023-09-19T06:35:58;3.23;;;1.50;;
59530;SDS011;45349;48.692;8.186;2023-09-19T06:38:25;4.77;;;1.10;;
59530;SDS011;45349;48.692;8.186;2023-09-19T06:41:17;3.07;;;1.00;;
59530;SDS011;45349;48.692;8.186;2023-09-19T06:43:44;4.60;;;1.20;;
59530;SDS011;45349;48.692;8.186;2023-09-19T06:46:12;2.20;;;1.37;;
59530;SDS011;45349;48.692;8.186;2023-09-19T06:48:39;3.70;;;1.30;;
59530;SDS011;45349;48.692;8.186;2023-09-19T06:51:06;3.10;;;1.20;;
59530;SDS011;45349;48.692;8.186;2023-09-19T06:53:33;4.20;;;1.33;;
59530;SDS011;45349;48.692;8.186;2023-09-19T06:56:00;2.07;;;1.07;;
59530;SDS011;45349;48.692;8.186;2023-09-19T06:58:27;4.43;;;1.30;;
59530;SDS011;45349;48.692;8.186;2023-09-19T07:00:58;2.77;;;1.30;;
59530;SDS011;45349;48.692;8.186;2023-09-19T07:03:26;3.77;;;1.20;;
59530;SDS011;45349;48.692;8.186;2023-09-19T07:05:59;4.63;;;1.27;;
59530;SDS011;45349;48.692;8.186;2023-09-19T07:08:25;3.67;;;1.10;;
59530;SDS011;45349;48.692;8.186;2023-09-19T07:10:59;3.60;;;1.40;;
59530;SDS011;45349;48.692;8.186;2023-09-19T07:13:25;3.47;;;1.20;;
59530;SDS011;45349;48.692;8.186;2023-09-19T07:15:58;4.57;;;1.20;;
59530;SDS011;45349;48.692;8.186;2023-09-19T07:18:26;3.10;;;1.10;;
59530;SDS011;45349;48.692;8.186;2023-09-19T07:20:59;1.57;;;0.90;;
59530;SDS011;45349;48.692;8.186;2023-09-19T07:23:29;3.73;;;0.97;;
59530;SDS011;45349;48.692;8.186;2023-09-19T07:26:00;3.13;;;1.17;;
59530;SDS011;45349;48.692;8.186;2023-09-19T07:28:27;8.47;;;1.03;;
59530;SDS011;45349;48.692;8.186;2023-09-19T07:31:01;5.10;;;1.33;;
59530;SDS011;45349;48.692;8.186;2023-09-19T07:33:29;4.67;;;1.03;;
59530;SDS011;45349;48.692;8.186;2023-09-19T07:35:58;4.33;;;0.97;;
59530;SDS011;45349;48.692;8.186;2023-09-19T07:38:25;2.50;;;1.13;;
59530;SDS011;45349;48.692;8.186;2023-09-19T07:41:17;2.87;;;1.00;;
59530;SDS011;45349;48.692;8.186;2023-09-19T07:43:44;3.83;;;1.00;;
59530;SDS011;45349;48.692;8.186;2023-09-19T07:46:10;4.13;;;0.97;;
59530;SDS011;45349;48.692;8.186;2023-09-19T07:48:38;1.67;;;0.90;;
59530;SDS011;45349;48.692;8.186;2023-09-19T07:51:06;4.57;;;1.00;;
59530;SDS011;45349;48.692;8.186;2023-09-19T07:53:34;2.27;;;1.13;;
59530;SDS011;45349;48.692;8.186;2023-09-19T07:56:02;4.17;;;1.00;;
59530;SDS011;45349;48.692;8.186;2023-09-19T07:58:30;3.50;;;1.00;;
59530;SDS011;45349;48.692;8.186;2023-09-19T08:01:02;3.17;;;1.10;;
59530;SDS011;45349;48.692;8.186;2023-09-19T08:03:29;2.67;;;1.00;;
59530;SDS011;45349;48.692;8.186;2023-09-19T08:06:00;2.80;;;1.00;;
59530;SDS011;45349;48.692;8.186;2023-09-19T08:08:27;2.73;;;1.10;;
59530;SDS011;45349;48.692;8.186;2023-09-19T08:10:59;2.50;;;1.10;;
59530;SDS011;45349;48.692;8.186;2023-09-19T08:13:26;3.40;;;1.17;;
59530;SDS011;45349;48.692;8.186;2023-09-19T08:15:58;3.23;;;1.10;;
59530;SDS011;45349;48.692;8.186;2023-09-19T08:18:25;2.70;;;1.10;;
59530;SDS011;45349;48.692;8.186;2023-09-19T08:21:00;1.53;;;1.07;;
59530;SDS011;45349;48.692;8.186;2023-09-19T08:23:27;5.00;;;1.17;;
59530;SDS011;45349;48.692;8.186;2023-09-19T08:25:59;3.63;;;1.10;;
59530;SDS011;45349;48.692;8.186;2023-09-19T08:28:28;2.00;;;1.00;;
59530;SDS011;45349;48.692;8.186;2023-09-19T08:31:01;3.37;;;1.50;;
59530;SDS011;45349;48.692;8.186;2023-09-19T08:33:29;3.70;;;1.30;;
59530;SDS011;45349;48.692;8.186;2023-09-19T08:36:00;4.83;;;1.20;;
59530;SDS011;45349;48.692;8.186;2023-09-19T08:38:26;3.43;;;1.20;;
59530;SDS011;45349;48.692;8.186;2023-09-19T08:40:59;5.70;;;1.60;;
59530;SDS011;45349;48.692;8.186;2023-09-19T08:43:26;2.70;;;1.20;;
59530;SDS011;45349;48.692;8.186;2023-09-19T08:46:03;3.30;;;1.20;;
59530;SDS011;45349;48.692;8.186;2023-09-19T08:48:36;2.90;;;1.03;;
59530;SDS011;45349;48.692;8.186;2023-09-19T08:51:07;3.93;;;1.13;;
59530;SDS011;45349;48.692;8.186;2023-09-19T08:53:40;3.53;;;1.20;;
59530;SDS011;45349;48.692;8.186;2023-09-19T08:56:11;2.53;;;1.23;;
59530;SDS011;45349;48.692;8.186;2023-09-19T08:58:40;3.87;;;1.20;;
59530;SDS011;45349;48.692;8.186;2023-09-19T09:01:12;5.93;;;1.20;;
59530;SDS011;45349;48.692;8.186;2023-09-19T09:03:41;5.47;;;1.50;;
59530;SDS011;45349;48.692;8.186;2023-09-19T09:06:12;3.07;;;1.20;;
59530;SDS011;45349;48.692;8.186;2023-09-19T09:08:40;3.30;;;1.20;;
59530;SDS011;45349;48.692;8.186;2023-09-19T09:11:08;4.60;;;1.70;;
59530;SDS011;45349;48.692;8.186;2023-09-19T09:13:35;7.13;;;1.43;;
59530;SDS011;45349;48.692;8.186;2023-09-19T09:16:02;2.73;;;1.10;;
59530;SDS011;45349;48.692;8.186;2023-09-19T09:18:29;2.93;;;1.40;;
59530;SDS011;45349;48.692;8.186;2023-09-19T09:20:58;4.13;;;1.27;;
59530;SDS011;45349;48.692;8.186;2023-09-19T09:23:26;4.43;;;1.50;;
59530;SDS011;45349;48.692;8.186;2023-09-19T09:25:59;7.27;;;1.47;;
59530;SDS011;45349;48.692;8.186;2023-09-19T09:28:28;4.30;;;1.23;;
59530;SDS011;45349;48.692;8.186;2023-09-19T09:30:58;3.03;;;1.27;;
59530;SDS011;45349;48.692;8.186;2023-09-19T09:33:27;6.10;;;1.33;;
59530;SDS011;45349;48.692;8.186;2023-09-19T09:35:59;2.67;;;1.20;;
59530;SDS011;45349;48.692;8.186;2023-09-19T09:38:29;2.83;;;1.07;;
59530;SDS011;45349;48.692;8.186;2023-09-19T09:41:09;2.03;;;1.10;;
59530;SDS011;45349;48.692;8.186;2023-09-19T09:43:40;2.60;;;1.10;;
59530;SDS011;45349;48.692;8.186;2023-09-19T09:46:13;4.37;;;1.03;;
59530;SDS011;45349;48.692;8.186;2023-09-19T09:48:58;5.37;;;1.40;;
59530;SDS011;45349;48.692;8.186;2023-09-19T09:51:50;3.83;;;1.30;;
59530;SDS011;45349;48.692;8.186;2023-09-19T09:54:26;3.93;;;1.30;;
59530;SDS011;45349;48.692;8.186;2023-09-19T09:57:00;2.43;;;1.10;;
59530;SDS011;45349;48.692;8.186;2023-09-19T10:02:21;2.90;;;1.27;;
59530;SDS011;45349;48.692;8.186;2023-09-19T10:04:54;2.23;;;1.00;;
59530;SDS011;45349;48.692;8.186;2023-09-19T10:07:40;4.23;;;0.90;;
59530;SDS011;45349;48.692;8.186;2023-09-19T10:10:14;2.57;;;1.23;;
59530;SDS011;45349;48.692;8.186;2023-09-19T10:12:47;4.83;;;1.37;;
59530;SDS011;45349;48.692;8.186;2023-09-19T10:15:15;4.23;;;1.03;;
59530;SDS011;45349;48.692;8.186;2023-09-19T10:17:46;3.83;;;1.40;;
59530;SDS011;45349;48.692;8.186;2023-09-19T10:20:13;3.27;;;1.30;;
59530;SDS011;45349;48.692;8.186;2023-09-19T10:22:49;2.37;;;0.83;;
59530;SDS011;45349;48.692;8.186;2023-09-19T10:25:25;2.33;;;0.90;;
59530;SDS011;45349;48.692;8.186;2023-09-19T10:27:54;4.87;;;1.50;;
59530;SDS011;45349;48.692;8.186;2023-09-19T10:30:23;2.40;;;1.00;;
59530;SDS011;45349;48.692;8.186;2023-09-19T10:32:53;3.47;;;1.20;;
59530;SDS011;45349;48.692;8.186;2023-09-19T10:35:25;3.20;;;1.13;;
59530;SDS011;45349;48.692;8.186;2023-09-19T10:37:54;3.63;;;1.07;;
59530;SDS011;45349;48.692;8.186;2023-09-19T10:40:24;3.67;;;1.03;;
59530;SDS011;45349;48.692;8.186;2023-09-19T10:42:58;7.13;;;1.20;;
59530;SDS011;45349;48.692;8.186;2023-09-19T10:45:28;4.10;;;1.03;;
59530;SDS011;45349;48.692;8.186;2023-09-19T10:47:56;3.37;;;1.13;;
59530;SDS011;45349;48.692;8.186;2023-09-19T10:50:23;3.37;;;1.13;;
59530;SDS011;45349;48.692;8.186;2023-09-19T10:52:51;3.90;;;1.13;;
59530;SDS011;45349;48.692;8.186;2023-09-19T10:55:27;5.33;;;1.03;;
59530;SDS011;45349;48.692;8.186;2023-09-19T10:57:55;2.73;;;1.00;;
59530;SDS011;45349;48.692;8.186;2023-09-19T11:00:23;2.43;;;1.20;;
59530;SDS011;45349;48.692;8.186;2023-09-19T11:05:59;3.60;;;1.00;;
59530;SDS011;45349;48.692;8.186;2023-09-19T11:08:53;4.90;;;1.27;;
59530;SDS011;45349;48.692;8.186;2023-09-19T11:11:43;3.23;;;1.10;;
59530;SDS011;45349;48.692;8.186;2023-09-19T11:20:21;2.53;;;1.00;;
59530;SDS011;45349;48.692;8.186;2023-09-19T11:23:19;2.30;;;1.00;;
59530;SDS011;45349;48.692;8.186;2023-09-19T11:26:32;2.30;;;0.87;;
59530;SDS011;45349;48.692;8.186;2023-09-19T11:31:52;1.57;;;0.90;;
59530;SDS011;45349;48.692;8.186;2023-09-19T11:34:39;2.27;;;0.90;;
59530;SDS011;45349;48.692;8.186;2023-09-19T11:43:37;3.77;;;0.90;;
59530;SDS011;45349;48.692;8.186;2023-09-19T11:46:07;5.23;;;0.87;;
59530;SDS011;45349;48.692;8.186;2023-09-19T11:48:34;3.73;;;0.97;;
59530;SDS011;45349;48.692;8.186;2023-09-19T11:51:09;4.00;;;0.77;;
59530;SDS011;45349;48.692;8.186;2023-09-19T11:53:41;2.80;;;0.80;;
59530;SDS011;45349;48.692;8.186;2023-09-19T11:56:09;3.43;;;1.00;;
59530;SDS011;45349;48.692;8.186;2023-09-19T11:58:37;3.50;;;1.10;;
59530;SDS011;45349;48.692;8.186;2023-09-19T12:01:04;5.90;;;1.10;;
59530;SDS011;45349;48.692;8.186;2023-09-19T12:03:39;3.67;;;1.03;;
59530;SDS011;45349;48.692;8.186;2023-09-19T12:06:12;3.10;;;0.90;;
59530;SDS011;45349;48.692;8.186;2023-09-19T12:08:41;3.50;;;0.77;;
59530;SDS011;45349;48.692;8.186;2023-09-19T12:11:11;4.87;;;0.80;;
59530;SDS011;45349;48.692;8.186;2023-09-19T12:13:41;2.67;;;0.83;;
59530;SDS011;45349;48.692;8.186;2023-09-19T12:16:13;3.73;;;0.77;;
59530;SDS011;45349;48.692;8.186;2023-09-19T12:18:43;3.17;;;0.80;;
59530;SDS011;45349;48.692;8.186;2023-09-19T12:21:21;1.13;;;0.70;;
59530;SDS011;45349;48.692;8.186;2023-09-19T12:23:57;2.80;;;0.90;;
59530;SDS011;45349;48.692;8.186;2023-09-19T12:26:25;2.63;;;1.00;;
59530;SDS011;45349;48.692;8.186;2023-09-19T12:28:54;6.17;;;0.90;;
59530;SDS011;45349;48.692;8.186;2023-09-19T12:31:21;3.13;;;1.00;;
59530;SDS011;45349;48.692;8.186;2023-09-19T12:33:53;2.57;;;0.97;;
59530;SDS011;45349;48.692;8.186;2023-09-19T12:36:21;2.23;;;0.97;;
59530;SDS011;45349;48.692;8.186;2023-09-19T12:38:54;2.80;;;1.20;;
59530;SDS011;45349;48.692;8.186;2023-09-19T12:41:21;1.97;;;0.80;;
59530;SDS011;45349;48.692;8.186;2023-09-19T12:43:48;2.17;;;0.90;;
59530;SDS011;45349;48.692;8.186;2023-09-19T12:46:19;1.50;;;0.90;;
59530;SDS011;45349;48.692;8.186;2023-09-19T12:48:51;2.27;;;0.90;;
59530;SDS011;45349;48.692;8.186;2023-09-19T12:51:44;4.00;;;0.80;;
59530;SDS011;45349;48.692;8.186;2023-09-19T12:54:11;2.17;;;0.90;;
59530;SDS011;45349;48.692;8.186;2023-09-19T12:56:40;2.53;;;0.70;;
59530;SDS011;45349;48.692;8.186;2023-09-19T12:59:09;2.90;;;1.10;;
59530;SDS011;45349;48.692;8.186;2023-09-19T13:01:38;1.40;;;0.77;;
59530;SDS011;45349;48.692;8.186;2023-09-19T13:04:11;1.47;;;0.80;;
59530;SDS011;45349;48.692;8.186;2023-09-19T13:06:41;2.47;;;0.73;;
59530;SDS011;45349;48.692;8.186;2023-09-19T13:09:09;1.63;;;0.60;;
59530;SDS011;45349;48.692;8.186;2023-09-19T13:11:37;3.30;;;1.20;;
59530;SDS011;45349;48.692;8.186;2023-09-19T13:14:16;2.03;;;0.80;;
59530;SDS011;45349;48.692;8.186;2023-09-19T13:16:57;2.80;;;0.70;;
59530;SDS011;45349;48.692;8.186;2023-09-19T13:19:37;3.77;;;0.70;;
59530;SDS011;45349;48.692;8.186;2023-09-19T13:22:07;2.23;;;0.90;;
59530;SDS011;45349;48.692;8.186;2023-09-19T13:25:04;3.43;;;0.80;;
59530;SDS011;45349;48.692;8.186;2023-09-19T13:27:32;1.70;;;0.67;;
59530;SDS011;45349;48.692;8.186;2023-09-19T13:29:59;1.77;;;0.90;;
59530;SDS011;45349;48.692;8.186;2023-09-19T13:32:25;3.83;;;1.00;;
59530;SDS011;45349;48.692;8.186;2023-09-19T13:34:52;0.90;;;0.70;;
59530;SDS011;45349;48.692;8.186;2023-09-19T13:37:20;4.67;;;1.00;;
59530;SDS011;45349;48.692;8.186;2023-09-19T13:39:47;2.30;;;0.80;;
59530;SDS011;45349;48.692;8.186;2023-09-19T13:42:14;3.37;;;0.73;;
59530;SDS011;45349;48.692;8.186;2023-09-19T13:44:41;3.07;;;0.80;;
59530;SDS011;45349;48.692;8.186;2023-09-19T13:47:08;2.30;;;0.63;;
59530;SDS011;45349;48.692;8.186;2023-09-19T13:49:35;3.20;;;0.97;;
59530;SDS011;45349;48.692;8.186;2023-09-19T13:52:03;1.77;;;0.90;;
59530;SDS011;45349;48.692;8.186;2023-09-19T13:54:31;1.80;;;0.77;;
59530;SDS011;45349;48.692;8.186;2023-09-19T13:56:58;2.77;;;0.90;;
59530;SDS011;45349;48.692;8.186;2023-09-19T13:59:25;1.37;;;0.80;;
59530;SDS011;45349;48.692;8.186;2023-09-19T14:01:53;2.43;;;1.00;;
59530;SDS011;45349;48.692;8.186;2023-09-19T14:04:21;2.90;;;1.17;;
59530;SDS011;45349;48.692;8.186;2023-09-19T14:06:48;3.73;;;1.60;;
59530;SDS011;45349;48.692;8.186;2023-09-19T14:09:14;3.77;;;0.90;;
59530;SDS011;45349;48.692;8.186;2023-09-19T14:11:46;3.80;;;1.00;;
59530;SDS011;45349;48.692;8.186;2023-09-19T14:14:13;2.07;;;0.80;;
59530;SDS011;45349;48.692;8.186;2023-09-19T14:16:40;5.07;;;1.20;;
59530;SDS011;45349;48.692;8.186;2023-09-19T14:19:07;2.53;;;0.80;;
59530;SDS011;45349;48.692;8.186;2023-09-19T14:21:34;4.37;;;0.73;;
59530;SDS011;45349;48.692;8.186;2023-09-19T14:24:01;2.00;;;0.80;;
59530;SDS011;45349;48.692;8.186;2023-09-19T14:26:28;1.63;;;0.90;;
59530;SDS011;45349;48.692;8.186;2023-09-19T14:28:56;2.17;;;0.80;;
59530;SDS011;45349;48.692;8.186;2023-09-19T14:31:23;1.47;;;0.70;;
59530;SDS011;45349;48.692;8.186;2023-09-19T14:33:54;0.90;;;0.70;;
59530;SDS011;45349;48.692;8.186;2023-09-19T14:36:21;3.17;;;0.70;;
59530;SDS011;45349;48.692;8.186;2023-09-19T14:38:51;2.63;;;0.70;;
59530;SDS011;45349;48.692;8.186;2023-09-19T14:41:20;2.43;;;0.80;;
59530;SDS011;45349;48.692;8.186;2023-09-19T14:43:47;2.00;;;0.63;;
59530;SDS011;45349;48.692;8.186;2023-09-19T14:46:14;1.87;;;0.90;;
59530;SDS011;45349;48.692;8.186;2023-09-19T14:48:41;0.90;;;0.67;;
59530;SDS011;45349;48.692;8.186;2023-09-19T14:51:09;1.53;;;0.70;;
59530;SDS011;45349;48.692;8.186;2023-09-19T14:53:37;2.90;;;0.60;;
59530;SDS011;45349;48.692;8.186;2023-09-19T14:56:04;1.30;;;0.70;;
59530;SDS011;45349;48.692;8.186;2023-09-19T14:58:32;2.13;;;0.57;;
59530;SDS011;45349;48.692;8.186;2023-09-19T15:01:03;1.87;;;0.60;;
59530;SDS011;45349;48.692;8.186;2023-09-19T15:03:33;2.93;;;0.70;;
59530;SDS011;45349;48.692;8.186;2023-09-19T15:06:01;1.87;;;0.80;;
59530;SDS011;45349;48.692;8.186;2023-09-19T15:08:28;1.70;;;0.83;;
59530;SDS011;45349;48.692;8.186;2023-09-19T15:10:59;1.10;;;0.60;;
59530;SDS011;45349;48.692;8.186;2023-09-19T15:13:29;1.10;;;0.70;;
59530;SDS011;45349;48.692;8.186;2023-09-19T15:15:59;0.97;;;0.57;;
59530;SDS011;45349;48.692;8.186;2023-09-19T15:18:27;2.00;;;0.60;;
59530;SDS011;45349;48.692;8.186;2023-09-19T15:21:01;1.70;;;0.80;;
59530;SDS011;45349;48.692;8.186;2023-09-19T15:23:34;1.33;;;0.60;;
59530;SDS011;45349;48.692;8.186;2023-09-19T15:26:01;1.80;;;0.50;;
59530;SDS011;45349;48.692;8.186;2023-09-19T15:28:29;2.00;;;0.73;;
59530;SDS011;45349;48.692;8.186;2023-09-19T15:30:59;4.27;;;0.80;;
59530;SDS011;45349;48.692;8.186;2023-09-19T15:33:26;6.33;;;0.93;;